Pavlodar, Kazakhstan
Current Conditions -  °F | °C
As of 9:30 AM on Tuesday 27 Jan 2015 (Local Time) from UASP Reporting Station
Clear Clear  
Wind Chill: -42°   Ceiling: Unl
Heat Index: -22°   Visibility: 6mi
Dew Point: -29°   Wind: 9mph
Humidity: 69%   Direction: 160°SSE
Pressure: 30.71"   Gusts: NA
Location:  52.3°N, 76.95°E
Report Text: UASP 270330Z 16004MPS CAVOK M30/M34 Q1040 R21/0///60 NOSIG RMKQFE769/1025
Loading
Personal Weather Stations






























Interactive Weather Map New forecast layout! Learn more

10-Day Weather Forecast

Advertisements
Track Severe Weather on mobile